sensor_id;sensor_type;location;lat;lon;timestamp;P1;durP1;ratioP1;P2;durP2;ratioP2
20784;SDS011;10552;45.818;12.896;2022-11-18T00:01:06;0.77;;;0.77;;
20784;SDS011;10552;45.818;12.896;2022-11-18T00:03:50;0.70;;;0.70;;
20784;SDS011;10552;45.818;12.896;2022-11-18T00:06:34;0.83;;;0.83;;
20784;SDS011;10552;45.818;12.896;2022-11-18T00:09:24;0.70;;;0.70;;
20784;SDS011;10552;45.818;12.896;2022-11-18T00:12:13;1.03;;;1.03;;
20784;SDS011;10552;45.818;12.896;2022-11-18T00:15:05;0.67;;;0.67;;
20784;SDS011;10552;45.818;12.896;2022-11-18T00:17:49;0.67;;;0.67;;
20784;SDS011;10552;45.818;12.896;2022-11-18T00:20:40;0.67;;;0.67;;
20784;SDS011;10552;45.818;12.896;2022-11-18T00:23:23;0.57;;;0.57;;
20784;SDS011;10552;45.818;12.896;2022-11-18T00:26:10;1.00;;;0.90;;
20784;SDS011;10552;45.818;12.896;2022-11-18T00:28:51;0.60;;;0.60;;
20784;SDS011;10552;45.818;12.896;2022-11-18T00:31:42;0.73;;;0.73;;
20784;SDS011;10552;45.818;12.896;2022-11-18T00:34:25;1.20;;;1.20;;
20784;SDS011;10552;45.818;12.896;2022-11-18T00:37:09;1.43;;;1.13;;
20784;SDS011;10552;45.818;12.896;2022-11-18T00:39:53;0.80;;;0.80;;
20784;SDS011;10552;45.818;12.896;2022-11-18T00:42:43;0.50;;;0.50;;
20784;SDS011;10552;45.818;12.896;2022-11-18T00:45:34;0.50;;;0.50;;
20784;SDS011;10552;45.818;12.896;2022-11-18T00:48:18;0.77;;;0.77;;
20784;SDS011;10552;45.818;12.896;2022-11-18T00:51:10;0.90;;;0.90;;
20784;SDS011;10552;45.818;12.896;2022-11-18T00:53:58;0.70;;;0.70;;
20784;SDS011;10552;45.818;12.896;2022-11-18T00:56:42;0.80;;;0.80;;
20784;SDS011;10552;45.818;12.896;2022-11-18T00:59:26;1.20;;;0.70;;
20784;SDS011;10552;45.818;12.896;2022-11-18T01:02:10;0.50;;;0.50;;
20784;SDS011;10552;45.818;12.896;2022-11-18T01:04:54;0.60;;;0.60;;
20784;SDS011;10552;45.818;12.896;2022-11-18T01:07:45;1.43;;;1.03;;
20784;SDS011;10552;45.818;12.896;2022-11-18T01:10:29;1.73;;;1.13;;
20784;SDS011;10552;45.818;12.896;2022-11-18T01:13:19;0.70;;;0.70;;
20784;SDS011;10552;45.818;12.896;2022-11-18T01:16:03;0.90;;;0.90;;
20784;SDS011;10552;45.818;12.896;2022-11-18T01:18:46;1.20;;;1.10;;
20784;SDS011;10552;45.818;12.896;2022-11-18T01:21:35;0.97;;;0.97;;
20784;SDS011;10552;45.818;12.896;2022-11-18T01:24:19;0.47;;;0.47;;
20784;SDS011;10552;45.818;12.896;2022-11-18T01:27:02;0.57;;;0.57;;
20784;SDS011;10552;45.818;12.896;2022-11-18T01:29:51;0.90;;;0.90;;
20784;SDS011;10552;45.818;12.896;2022-11-18T01:32:41;0.50;;;0.50;;
20784;SDS011;10552;45.818;12.896;2022-11-18T01:35:25;0.70;;;0.70;;
20784;SDS011;10552;45.818;12.896;2022-11-18T01:38:12;2.50;;;1.00;;
20784;SDS011;10552;45.818;12.896;2022-11-18T01:40:56;1.20;;;1.10;;
20784;SDS011;10552;45.818;12.896;2022-11-18T01:43:46;0.90;;;0.90;;
20784;SDS011;10552;45.818;12.896;2022-11-18T01:46:29;1.00;;;1.00;;
20784;SDS011;10552;45.818;12.896;2022-11-18T01:49:13;1.00;;;1.00;;
20784;SDS011;10552;45.818;12.896;2022-11-18T01:51:57;0.90;;;0.90;;
20784;SDS011;10552;45.818;12.896;2022-11-18T01:54:47;0.80;;;0.80;;
20784;SDS011;10552;45.818;12.896;2022-11-18T01:57:31;0.87;;;0.87;;
20784;SDS011;10552;45.818;12.896;2022-11-18T02:00:15;0.77;;;0.73;;
20784;SDS011;10552;45.818;12.896;2022-11-18T02:03:00;0.53;;;0.53;;
20784;SDS011;10552;45.818;12.896;2022-11-18T02:05:52;0.87;;;0.87;;
20784;SDS011;10552;45.818;12.896;2022-11-18T02:08:42;0.77;;;0.77;;
20784;SDS011;10552;45.818;12.896;2022-11-18T02:11:26;1.43;;;0.90;;
20784;SDS011;10552;45.818;12.896;2022-11-18T02:14:15;1.33;;;1.23;;
20784;SDS011;10552;45.818;12.896;2022-11-18T02:17:03;0.53;;;0.53;;
20784;SDS011;10552;45.818;12.896;2022-11-18T02:22:56;1.10;;;1.10;;
20784;SDS011;10552;45.818;12.896;2022-11-18T02:25:45;0.50;;;0.50;;
20784;SDS011;10552;45.818;12.896;2022-11-18T02:31:26;1.13;;;0.90;;
20784;SDS011;10552;45.818;12.896;2022-11-18T02:34:10;0.60;;;0.60;;
20784;SDS011;10552;45.818;12.896;2022-11-18T02:36:51;0.57;;;0.57;;
20784;SDS011;10552;45.818;12.896;2022-11-18T02:39:42;1.03;;;0.93;;
20784;SDS011;10552;45.818;12.896;2022-11-18T02:42:22;0.50;;;0.50;;
20784;SDS011;10552;45.818;12.896;2022-11-18T02:45:13;1.20;;;1.20;;
20784;SDS011;10552;45.818;12.896;2022-11-18T02:47:56;0.40;;;0.40;;
20784;SDS011;10552;45.818;12.896;2022-11-18T02:50:41;0.90;;;0.90;;
20784;SDS011;10552;45.818;12.896;2022-11-18T02:53:26;0.77;;;0.77;;
20784;SDS011;10552;45.818;12.896;2022-11-18T02:56:16;0.70;;;0.70;;
20784;SDS011;10552;45.818;12.896;2022-11-18T02:59:00;1.30;;;1.13;;
20784;SDS011;10552;45.818;12.896;2022-11-18T03:01:49;1.00;;;1.00;;
20784;SDS011;10552;45.818;12.896;2022-11-18T03:04:33;0.73;;;0.73;;
20784;SDS011;10552;45.818;12.896;2022-11-18T03:07:24;0.90;;;0.90;;
20784;SDS011;10552;45.818;12.896;2022-11-18T03:10:11;1.03;;;0.80;;
20784;SDS011;10552;45.818;12.896;2022-11-18T03:13:00;0.50;;;0.50;;
20784;SDS011;10552;45.818;12.896;2022-11-18T03:15:42;0.87;;;0.87;;
20784;SDS011;10552;45.818;12.896;2022-11-18T03:18:27;0.77;;;0.77;;
20784;SDS011;10552;45.818;12.896;2022-11-18T03:21:16;0.63;;;0.63;;
20784;SDS011;10552;45.818;12.896;2022-11-18T03:24:02;2.90;;;0.80;;
20784;SDS011;10552;45.818;12.896;2022-11-18T03:26:45;0.60;;;0.60;;
20784;SDS011;10552;45.818;12.896;2022-11-18T03:29:33;0.50;;;0.50;;
20784;SDS011;10552;45.818;12.896;2022-11-18T03:32:25;0.60;;;0.60;;
20784;SDS011;10552;45.818;12.896;2022-11-18T03:35:15;0.40;;;0.40;;
20784;SDS011;10552;45.818;12.896;2022-11-18T03:38:00;0.50;;;0.50;;
20784;SDS011;10552;45.818;12.896;2022-11-18T03:40:50;1.00;;;1.00;;
20784;SDS011;10552;45.818;12.896;2022-11-18T03:43:39;0.80;;;0.80;;
20784;SDS011;10552;45.818;12.896;2022-11-18T03:46:24;0.77;;;0.77;;
20784;SDS011;10552;45.818;12.896;2022-11-18T03:49:06;0.67;;;0.67;;
20784;SDS011;10552;45.818;12.896;2022-11-18T03:51:50;0.60;;;0.60;;
20784;SDS011;10552;45.818;12.896;2022-11-18T03:54:38;0.83;;;0.83;;
20784;SDS011;10552;45.818;12.896;2022-11-18T03:57:24;0.60;;;0.60;;
20784;SDS011;10552;45.818;12.896;2022-11-18T04:00:07;0.70;;;0.70;;
20784;SDS011;10552;45.818;12.896;2022-11-18T04:02:51;1.00;;;1.00;;
20784;SDS011;10552;45.818;12.896;2022-11-18T04:05:23;1.03;;;1.03;;
20784;SDS011;10552;45.818;12.896;2022-11-18T04:08:12;0.30;;;0.30;;
20784;SDS011;10552;45.818;12.896;2022-11-18T04:10:57;0.57;;;0.57;;
20784;SDS011;10552;45.818;12.896;2022-11-18T04:13:38;0.60;;;0.60;;
20784;SDS011;10552;45.818;12.896;2022-11-18T04:16:21;1.20;;;1.00;;
20784;SDS011;10552;45.818;12.896;2022-11-18T04:19:05;0.40;;;0.40;;
20784;SDS011;10552;45.818;12.896;2022-11-18T04:21:54;0.40;;;0.40;;
20784;SDS011;10552;45.818;12.896;2022-11-18T04:24:38;1.00;;;0.63;;
20784;SDS011;10552;45.818;12.896;2022-11-18T04:27:22;0.40;;;0.40;;
20784;SDS011;10552;45.818;12.896;2022-11-18T04:30:11;0.40;;;0.40;;
20784;SDS011;10552;45.818;12.896;2022-11-18T04:32:54;0.50;;;0.50;;
20784;SDS011;10552;45.818;12.896;2022-11-18T04:35:38;0.40;;;0.40;;
20784;SDS011;10552;45.818;12.896;2022-11-18T04:38:22;0.80;;;0.80;;
20784;SDS011;10552;45.818;12.896;2022-11-18T04:41:12;0.40;;;0.40;;
20784;SDS011;10552;45.818;12.896;2022-11-18T04:43:56;1.00;;;0.53;;
20784;SDS011;10552;45.818;12.896;2022-11-18T04:46:40;0.40;;;0.40;;
20784;SDS011;10552;45.818;12.896;2022-11-18T04:49:23;0.80;;;0.80;;
20784;SDS011;10552;45.818;12.896;2022-11-18T04:52:06;0.50;;;0.50;;
20784;SDS011;10552;45.818;12.896;2022-11-18T04:54:50;0.57;;;0.57;;
20784;SDS011;10552;45.818;12.896;2022-11-18T04:57:33;0.93;;;0.93;;
20784;SDS011;10552;45.818;12.896;2022-11-18T05:00:16;0.53;;;0.53;;
20784;SDS011;10552;45.818;12.896;2022-11-18T05:03:00;1.50;;;1.10;;
20784;SDS011;10552;45.818;12.896;2022-11-18T05:05:46;0.90;;;0.90;;
20784;SDS011;10552;45.818;12.896;2022-11-18T05:08:30;0.70;;;0.70;;
20784;SDS011;10552;45.818;12.896;2022-11-18T05:11:20;0.57;;;0.57;;
20784;SDS011;10552;45.818;12.896;2022-11-18T05:14:09;0.43;;;0.43;;
20784;SDS011;10552;45.818;12.896;2022-11-18T05:16:53;0.63;;;0.63;;
20784;SDS011;10552;45.818;12.896;2022-11-18T05:19:37;0.70;;;0.60;;
20784;SDS011;10552;45.818;12.896;2022-11-18T05:22:20;1.10;;;1.00;;
20784;SDS011;10552;45.818;12.896;2022-11-18T05:25:03;0.87;;;0.87;;
20784;SDS011;10552;45.818;12.896;2022-11-18T05:27:47;0.60;;;0.60;;
20784;SDS011;10552;45.818;12.896;2022-11-18T05:30:33;0.70;;;0.70;;
20784;SDS011;10552;45.818;12.896;2022-11-18T05:33:17;1.43;;;0.83;;
20784;SDS011;10552;45.818;12.896;2022-11-18T05:36:02;0.90;;;0.90;;
20784;SDS011;10552;45.818;12.896;2022-11-18T05:38:45;0.70;;;0.70;;
20784;SDS011;10552;45.818;12.896;2022-11-18T05:41:29;2.20;;;0.60;;
20784;SDS011;10552;45.818;12.896;2022-11-18T05:44:20;0.70;;;0.70;;
20784;SDS011;10552;45.818;12.896;2022-11-18T05:47:04;0.83;;;0.83;;
20784;SDS011;10552;45.818;12.896;2022-11-18T05:49:54;0.90;;;0.90;;
20784;SDS011;10552;45.818;12.896;2022-11-18T05:52:26;0.57;;;0.50;;
20784;SDS011;10552;45.818;12.896;2022-11-18T05:55:10;0.67;;;0.67;;
20784;SDS011;10552;45.818;12.896;2022-11-18T05:57:53;0.70;;;0.70;;
20784;SDS011;10552;45.818;12.896;2022-11-18T06:00:36;0.63;;;0.63;;
20784;SDS011;10552;45.818;12.896;2022-11-18T06:03:22;0.60;;;0.60;;
20784;SDS011;10552;45.818;12.896;2022-11-18T06:06:11;0.80;;;0.80;;
20784;SDS011;10552;45.818;12.896;2022-11-18T06:08:55;0.50;;;0.50;;
20784;SDS011;10552;45.818;12.896;2022-11-18T06:11:39;0.80;;;0.80;;
20784;SDS011;10552;45.818;12.896;2022-11-18T06:14:21;0.57;;;0.57;;
20784;SDS011;10552;45.818;12.896;2022-11-18T06:17:05;0.90;;;0.80;;
20784;SDS011;10552;45.818;12.896;2022-11-18T06:19:49;0.47;;;0.47;;
20784;SDS011;10552;45.818;12.896;2022-11-18T06:22:33;1.23;;;1.13;;
20784;SDS011;10552;45.818;12.896;2022-11-18T06:25:18;1.47;;;1.03;;
20784;SDS011;10552;45.818;12.896;2022-11-18T06:28:02;0.80;;;0.80;;
20784;SDS011;10552;45.818;12.896;2022-11-18T06:30:48;0.90;;;0.90;;
20784;SDS011;10552;45.818;12.896;2022-11-18T06:33:32;0.60;;;0.60;;
20784;SDS011;10552;45.818;12.896;2022-11-18T06:36:16;0.43;;;0.43;;
20784;SDS011;10552;45.818;12.896;2022-11-18T06:39:02;0.90;;;0.90;;
20784;SDS011;10552;45.818;12.896;2022-11-18T06:41:51;0.80;;;0.80;;
20784;SDS011;10552;45.818;12.896;2022-11-18T06:44:35;1.00;;;1.00;;
20784;SDS011;10552;45.818;12.896;2022-11-18T06:47:24;0.80;;;0.60;;
20784;SDS011;10552;45.818;12.896;2022-11-18T06:50:07;0.70;;;0.70;;
20784;SDS011;10552;45.818;12.896;2022-11-18T06:52:51;0.73;;;0.73;;
20784;SDS011;10552;45.818;12.896;2022-11-18T06:55:40;0.57;;;0.57;;
20784;SDS011;10552;45.818;12.896;2022-11-18T06:58:24;0.70;;;0.70;;
20784;SDS011;10552;45.818;12.896;2022-11-18T07:00:56;0.40;;;0.40;;
20784;SDS011;10552;45.818;12.896;2022-11-18T07:03:39;1.00;;;1.00;;
20784;SDS011;10552;45.818;12.896;2022-11-18T07:06:29;0.73;;;0.73;;
20784;SDS011;10552;45.818;12.896;2022-11-18T07:12:09;0.80;;;0.50;;
20784;SDS011;10552;45.818;12.896;2022-11-18T07:14:59;1.10;;;1.00;;
20784;SDS011;10552;45.818;12.896;2022-11-18T07:17:43;0.67;;;0.67;;
20784;SDS011;10552;45.818;12.896;2022-11-18T07:20:27;0.80;;;0.80;;
20784;SDS011;10552;45.818;12.896;2022-11-18T07:23:12;0.90;;;0.60;;
20784;SDS011;10552;45.818;12.896;2022-11-18T07:25:56;0.60;;;0.60;;
20784;SDS011;10552;45.818;12.896;2022-11-18T07:28:39;0.50;;;0.50;;
20784;SDS011;10552;45.818;12.896;2022-11-18T07:31:28;0.30;;;0.30;;
20784;SDS011;10552;45.818;12.896;2022-11-18T07:34:18;0.70;;;0.70;;
20784;SDS011;10552;45.818;12.896;2022-11-18T07:37:01;0.60;;;0.60;;
20784;SDS011;10552;45.818;12.896;2022-11-18T07:39:46;0.50;;;0.50;;
20784;SDS011;10552;45.818;12.896;2022-11-18T07:42:37;0.87;;;0.87;;
20784;SDS011;10552;45.818;12.896;2022-11-18T07:45:28;0.60;;;0.60;;
20784;SDS011;10552;45.818;12.896;2022-11-18T07:48:18;0.60;;;0.60;;
20784;SDS011;10552;45.818;12.896;2022-11-18T07:51:02;0.80;;;0.73;;
20784;SDS011;10552;45.818;12.896;2022-11-18T07:53:47;0.97;;;0.97;;
20784;SDS011;10552;45.818;12.896;2022-11-18T07:56:31;0.43;;;0.43;;
20784;SDS011;10552;45.818;12.896;2022-11-18T07:59:15;1.30;;;0.40;;
20784;SDS011;10552;45.818;12.896;2022-11-18T08:02:04;1.00;;;0.90;;
20784;SDS011;10552;45.818;12.896;2022-11-18T08:04:47;0.97;;;0.97;;
20784;SDS011;10552;45.818;12.896;2022-11-18T08:07:31;0.70;;;0.70;;
20784;SDS011;10552;45.818;12.896;2022-11-18T08:10:14;0.70;;;0.70;;
20784;SDS011;10552;45.818;12.896;2022-11-18T08:13:04;0.50;;;0.50;;
20784;SDS011;10552;45.818;12.896;2022-11-18T08:15:50;0.57;;;0.57;;
20784;SDS011;10552;45.818;12.896;2022-11-18T08:18:33;0.80;;;0.80;;
20784;SDS011;10552;45.818;12.896;2022-11-18T08:21:23;0.57;;;0.57;;
20784;SDS011;10552;45.818;12.896;2022-11-18T08:24:08;0.60;;;0.60;;
20784;SDS011;10552;45.818;12.896;2022-11-18T08:26:56;2.30;;;0.77;;
20784;SDS011;10552;45.818;12.896;2022-11-18T08:29:39;0.80;;;0.80;;
20784;SDS011;10552;45.818;12.896;2022-11-18T08:32:22;0.70;;;0.60;;
20784;SDS011;10552;45.818;12.896;2022-11-18T08:35:06;0.90;;;0.90;;
20784;SDS011;10552;45.818;12.896;2022-11-18T08:37:50;1.13;;;0.83;;
20784;SDS011;10552;45.818;12.896;2022-11-18T08:40:33;0.43;;;0.43;;
20784;SDS011;10552;45.818;12.896;2022-11-18T08:43:16;0.70;;;0.63;;
20784;SDS011;10552;45.818;12.896;2022-11-18T08:46:00;0.60;;;0.60;;
20784;SDS011;10552;45.818;12.896;2022-11-18T08:48:51;0.80;;;0.80;;
20784;SDS011;10552;45.818;12.896;2022-11-18T08:51:34;0.60;;;0.60;;
20784;SDS011;10552;45.818;12.896;2022-11-18T08:54:24;0.60;;;0.60;;
20784;SDS011;10552;45.818;12.896;2022-11-18T08:57:07;0.73;;;0.73;;
20784;SDS011;10552;45.818;12.896;2022-11-18T08:59:57;0.80;;;0.80;;
20784;SDS011;10552;45.818;12.896;2022-11-18T09:02:47;0.50;;;0.50;;
20784;SDS011;10552;45.818;12.896;2022-11-18T09:05:30;0.70;;;0.70;;
20784;SDS011;10552;45.818;12.896;2022-11-18T09:08:16;1.17;;;1.00;;
20784;SDS011;10552;45.818;12.896;2022-11-18T09:11:03;0.63;;;0.57;;
20784;SDS011;10552;45.818;12.896;2022-11-18T09:13:46;0.30;;;0.30;;
20784;SDS011;10552;45.818;12.896;2022-11-18T09:16:36;2.10;;;1.50;;
20784;SDS011;10552;45.818;12.896;2022-11-18T09:19:19;0.97;;;0.97;;
20784;SDS011;10552;45.818;12.896;2022-11-18T09:22:03;0.80;;;0.80;;
20784;SDS011;10552;45.818;12.896;2022-11-18T09:24:45;1.10;;;1.10;;
20784;SDS011;10552;45.818;12.896;2022-11-18T09:27:39;1.00;;;0.50;;
20784;SDS011;10552;45.818;12.896;2022-11-18T09:30:28;0.77;;;0.77;;
20784;SDS011;10552;45.818;12.896;2022-11-18T09:33:12;0.73;;;0.73;;
20784;SDS011;10552;45.818;12.896;2022-11-18T09:35:56;0.83;;;0.83;;
20784;SDS011;10552;45.818;12.896;2022-11-18T09:38:40;0.60;;;0.60;;
20784;SDS011;10552;45.818;12.896;2022-11-18T09:41:32;0.70;;;0.70;;
20784;SDS011;10552;45.818;12.896;2022-11-18T09:49:54;0.90;;;0.90;;
20784;SDS011;10552;45.818;12.896;2022-11-18T09:52:38;1.13;;;1.13;;
20784;SDS011;10552;45.818;12.896;2022-11-18T09:55:21;0.90;;;0.90;;
20784;SDS011;10552;45.818;12.896;2022-11-18T09:58:04;1.37;;;1.27;;
20784;SDS011;10552;45.818;12.896;2022-11-18T10:00:55;1.03;;;1.03;;
20784;SDS011;10552;45.818;12.896;2022-11-18T10:03:38;1.00;;;1.00;;
20784;SDS011;10552;45.818;12.896;2022-11-18T10:06:24;0.57;;;0.57;;
20784;SDS011;10552;45.818;12.896;2022-11-18T10:12:08;1.10;;;1.10;;
20784;SDS011;10552;45.818;12.896;2022-11-18T10:14:56;1.03;;;1.03;;
20784;SDS011;10552;45.818;12.896;2022-11-18T10:17:30;0.80;;;0.80;;
20784;SDS011;10552;45.818;12.896;2022-11-18T10:20:16;1.37;;;1.13;;
20784;SDS011;10552;45.818;12.896;2022-11-18T10:23:10;2.00;;;0.90;;
20784;SDS011;10552;45.818;12.896;2022-11-18T10:25:51;0.63;;;0.63;;
20784;SDS011;10552;45.818;12.896;2022-11-18T10:28:35;0.70;;;0.70;;
20784;SDS011;10552;45.818;12.896;2022-11-18T10:31:18;0.90;;;0.90;;
20784;SDS011;10552;45.818;12.896;2022-11-18T10:33:57;0.50;;;0.37;;
20784;SDS011;10552;45.818;12.896;2022-11-18T10:36:57;0.50;;;0.50;;
20784;SDS011;10552;45.818;12.896;2022-11-18T10:42:40;0.77;;;0.77;;
20784;SDS011;10552;45.818;12.896;2022-11-18T10:45:30;0.90;;;0.90;;
20784;SDS011;10552;45.818;12.896;2022-11-18T10:48:20;0.50;;;0.50;;
20784;SDS011;10552;45.818;12.896;2022-11-18T10:54:06;0.80;;;0.80;;
20784;SDS011;10552;45.818;12.896;2022-11-18T10:56:50;0.60;;;0.60;;
20784;SDS011;10552;45.818;12.896;2022-11-18T10:59:34;0.77;;;0.77;;
20784;SDS011;10552;45.818;12.896;2022-11-18T11:02:22;0.53;;;0.53;;
20784;SDS011;10552;45.818;12.896;2022-11-18T11:05:11;1.30;;;1.20;;
20784;SDS011;10552;45.818;12.896;2022-11-18T11:10:38;0.57;;;0.57;;
20784;SDS011;10552;45.818;12.896;2022-11-18T11:13:24;1.27;;;1.17;;
20784;SDS011;10552;45.818;12.896;2022-11-18T11:16:14;2.60;;;0.60;;
20784;SDS011;10552;45.818;12.896;2022-11-18T11:18:58;0.47;;;0.47;;
20784;SDS011;10552;45.818;12.896;2022-11-18T11:21:41;0.77;;;0.77;;
20784;SDS011;10552;45.818;12.896;2022-11-18T11:24:25;0.47;;;0.47;;
20784;SDS011;10552;45.818;12.896;2022-11-18T11:27:13;1.00;;;1.00;;
20784;SDS011;10552;45.818;12.896;2022-11-18T11:30:14;0.60;;;0.60;;
20784;SDS011;10552;45.818;12.896;2022-11-18T11:33:02;0.87;;;0.80;;
20784;SDS011;10552;45.818;12.896;2022-11-18T11:35:59;0.57;;;0.57;;
20784;SDS011;10552;45.818;12.896;2022-11-18T11:38:52;0.70;;;0.70;;
20784;SDS011;10552;45.818;12.896;2022-11-18T11:41:38;0.77;;;0.67;;
20784;SDS011;10552;45.818;12.896;2022-11-18T11:50:07;0.27;;;0.27;;
20784;SDS011;10552;45.818;12.896;2022-11-18T11:55:44;1.20;;;1.20;;
20784;SDS011;10552;45.818;12.896;2022-11-18T12:01:17;0.50;;;0.50;;
20784;SDS011;10552;45.818;12.896;2022-11-18T12:04:08;1.60;;;1.30;;
20784;SDS011;10552;45.818;12.896;2022-11-18T12:06:50;0.90;;;0.90;;
20784;SDS011;10552;45.818;12.896;2022-11-18T12:09:38;1.00;;;1.00;;
20784;SDS011;10552;45.818;12.896;2022-11-18T12:12:22;1.20;;;1.10;;
20784;SDS011;10552;45.818;12.896;2022-11-18T12:18:20;0.50;;;0.50;;
20784;SDS011;10552;45.818;12.896;2022-11-18T12:20:52;0.30;;;0.30;;
20784;SDS011;10552;45.818;12.896;2022-11-18T12:23:41;0.90;;;0.90;;
20784;SDS011;10552;45.818;12.896;2022-11-18T12:29:25;0.70;;;0.70;;
20784;SDS011;10552;45.818;12.896;2022-11-18T12:32:23;0.60;;;0.60;;
20784;SDS011;10552;45.818;12.896;2022-11-18T12:35:09;0.60;;;0.60;;
20784;SDS011;10552;45.818;12.896;2022-11-18T12:37:57;0.30;;;0.30;;
20784;SDS011;10552;45.818;12.896;2022-11-18T12:40:42;0.37;;;0.37;;
20784;SDS011;10552;45.818;12.896;2022-11-18T12:46:49;0.40;;;0.40;;
20784;SDS011;10552;45.818;12.896;2022-11-18T12:52:45;0.30;;;0.30;;
20784;SDS011;10552;45.818;12.896;2022-11-18T12:55:29;0.30;;;0.30;;
20784;SDS011;10552;45.818;12.896;2022-11-18T12:58:19;0.47;;;0.47;;
20784;SDS011;10552;45.818;12.896;2022-11-18T13:01:06;0.30;;;0.30;;
20784;SDS011;10552;45.818;12.896;2022-11-18T13:06:46;0.20;;;0.20;;
20784;SDS011;10552;45.818;12.896;2022-11-18T13:09:31;0.20;;;0.20;;
20784;SDS011;10552;45.818;12.896;2022-11-18T13:12:13;0.30;;;0.30;;
20784;SDS011;10552;45.818;12.896;2022-11-18T13:14:56;0.30;;;0.30;;
20784;SDS011;10552;45.818;12.896;2022-11-18T13:17:46;0.27;;;0.27;;
20784;SDS011;10552;45.818;12.896;2022-11-18T13:20:38;0.27;;;0.27;;
20784;SDS011;10552;45.818;12.896;2022-11-18T13:23:25;0.20;;;0.20;;
20784;SDS011;10552;45.818;12.896;2022-11-18T13:26:18;0.20;;;0.20;;
20784;SDS011;10552;45.818;12.896;2022-11-18T13:29:31;0.10;;;0.10;;
20784;SDS011;10552;45.818;12.896;2022-11-18T13:32:23;0.10;;;0.10;;
20784;SDS011;10552;45.818;12.896;2022-11-18T13:35:21;0.15;;;0.15;;
20784;SDS011;10552;45.818;12.896;2022-11-18T13:40:59;0.20;;;0.20;;
20784;SDS011;10552;45.818;12.896;2022-11-18T13:43:47;0.20;;;0.20;;
20784;SDS011;10552;45.818;12.896;2022-11-18T13:46:31;0.27;;;0.27;;
20784;SDS011;10552;45.818;12.896;2022-11-18T13:49:15;0.40;;;0.40;;
20784;SDS011;10552;45.818;12.896;2022-11-18T13:51:57;0.40;;;0.40;;
20784;SDS011;10552;45.818;12.896;2022-11-18T13:54:41;0.40;;;0.40;;
20784;SDS011;10552;45.818;12.896;2022-11-18T13:57:24;0.20;;;0.20;;
20784;SDS011;10552;45.818;12.896;2022-11-18T14:00:19;0.20;;;0.20;;
20784;SDS011;10552;45.818;12.896;2022-11-18T14:05:56;0.20;;;0.20;;
20784;SDS011;10552;45.818;12.896;2022-11-18T14:08:40;0.20;;;0.20;;
20784;SDS011;10552;45.818;12.896;2022-11-18T14:14:25;0.10;;;0.10;;
20784;SDS011;10552;45.818;12.896;2022-11-18T14:17:02;0.40;;;0.40;;
20784;SDS011;10552;45.818;12.896;2022-11-18T14:19:40;0.10;;;0.10;;
20784;SDS011;10552;45.818;12.896;2022-11-18T14:22:24;0.10;;;0.10;;
20784;SDS011;10552;45.818;12.896;2022-11-18T14:25:16;0.20;;;0.20;;
20784;SDS011;10552;45.818;12.896;2022-11-18T14:30:54;0.20;;;0.20;;
20784;SDS011;10552;45.818;12.896;2022-11-18T14:34:02;0.10;;;0.10;;
20784;SDS011;10552;45.818;12.896;2022-11-18T14:36:26;0.20;;;0.20;;
20784;SDS011;10552;45.818;12.896;2022-11-18T14:39:23;0.20;;;0.20;;
20784;SDS011;10552;45.818;12.896;2022-11-18T14:42:08;0.30;;;0.30;;
20784;SDS011;10552;45.818;12.896;2022-11-18T14:44:49;0.30;;;0.30;;
20784;SDS011;10552;45.818;12.896;2022-11-18T14:47:34;0.20;;;0.20;;
20784;SDS011;10552;45.818;12.896;2022-11-18T14:50:17;0.30;;;0.30;;
20784;SDS011;10552;45.818;12.896;2022-11-18T14:53:02;0.20;;;0.20;;
20784;SDS011;10552;45.818;12.896;2022-11-18T14:55:48;0.37;;;0.37;;
20784;SDS011;10552;45.818;12.896;2022-11-18T14:58:31;0.20;;;0.20;;
20784;SDS011;10552;45.818;12.896;2022-11-18T15:01:15;0.40;;;0.40;;
20784;SDS011;10552;45.818;12.896;2022-11-18T15:03:58;0.30;;;0.30;;
20784;SDS011;10552;45.818;12.896;2022-11-18T15:06:42;0.20;;;0.20;;
20784;SDS011;10552;45.818;12.896;2022-11-18T15:09:25;0.20;;;0.20;;
20784;SDS011;10552;45.818;12.896;2022-11-18T15:12:09;0.20;;;0.20;;
20784;SDS011;10552;45.818;12.896;2022-11-18T15:14:52;0.30;;;0.30;;
20784;SDS011;10552;45.818;12.896;2022-11-18T15:17:35;0.33;;;0.33;;
20784;SDS011;10552;45.818;12.896;2022-11-18T15:20:19;0.27;;;0.27;;
20784;SDS011;10552;45.818;12.896;2022-11-18T15:23:11;0.15;;;0.15;;
20784;SDS011;10552;45.818;12.896;2022-11-18T15:25:54;0.20;;;0.20;;
20784;SDS011;10552;45.818;12.896;2022-11-18T15:28:37;0.30;;;0.30;;
20784;SDS011;10552;45.818;12.896;2022-11-18T15:31:22;0.30;;;0.30;;
20784;SDS011;10552;45.818;12.896;2022-11-18T15:34:06;0.30;;;0.30;;
20784;SDS011;10552;45.818;12.896;2022-11-18T15:36:49;0.20;;;0.20;;
20784;SDS011;10552;45.818;12.896;2022-11-18T15:39:32;0.30;;;0.30;;
20784;SDS011;10552;45.818;12.896;2022-11-18T15:42:17;0.40;;;0.40;;
20784;SDS011;10552;45.818;12.896;2022-11-18T15:45:01;0.20;;;0.20;;
20784;SDS011;10552;45.818;12.896;2022-11-18T15:47:50;0.10;;;0.10;;
20784;SDS011;10552;45.818;12.896;2022-11-18T15:50:40;0.20;;;0.20;;
20784;SDS011;10552;45.818;12.896;2022-11-18T15:53:26;0.10;;;0.10;;
20784;SDS011;10552;45.818;12.896;2022-11-18T15:56:13;0.23;;;0.23;;
20784;SDS011;10552;45.818;12.896;2022-11-18T15:58:57;0.20;;;0.20;;
20784;SDS011;10552;45.818;12.896;2022-11-18T16:01:46;0.20;;;0.20;;
20784;SDS011;10552;45.818;12.896;2022-11-18T16:04:36;0.20;;;0.20;;
20784;SDS011;10552;45.818;12.896;2022-11-18T16:07:19;0.20;;;0.20;;
20784;SDS011;10552;45.818;12.896;2022-11-18T16:10:09;0.20;;;0.20;;
20784;SDS011;10552;45.818;12.896;2022-11-18T16:12:59;0.20;;;0.20;;
20784;SDS011;10552;45.818;12.896;2022-11-18T16:15:43;0.20;;;0.20;;
20784;SDS011;10552;45.818;12.896;2022-11-18T16:18:15;0.20;;;0.20;;
20784;SDS011;10552;45.818;12.896;2022-11-18T16:20:59;0.30;;;0.30;;
20784;SDS011;10552;45.818;12.896;2022-11-18T16:23:42;0.30;;;0.30;;
20784;SDS011;10552;45.818;12.896;2022-11-18T16:26:25;0.70;;;0.60;;
20784;SDS011;10552;45.818;12.896;2022-11-18T16:29:15;0.20;;;0.20;;
20784;SDS011;10552;45.818;12.896;2022-11-18T16:31:58;0.30;;;0.30;;
20784;SDS011;10552;45.818;12.896;2022-11-18T16:34:48;0.10;;;0.10;;
20784;SDS011;10552;45.818;12.896;2022-11-18T16:37:30;0.30;;;0.30;;
20784;SDS011;10552;45.818;12.896;2022-11-18T16:40:14;0.30;;;0.30;;
20784;SDS011;10552;45.818;12.896;2022-11-18T16:42:59;0.20;;;0.20;;
20784;SDS011;10552;45.818;12.896;2022-11-18T16:45:48;0.20;;;0.20;;
20784;SDS011;10552;45.818;12.896;2022-11-18T16:48:27;0.20;;;0.20;;
20784;SDS011;10552;45.818;12.896;2022-11-18T16:51:06;0.53;;;0.53;;
20784;SDS011;10552;45.818;12.896;2022-11-18T16:53:53;0.30;;;0.30;;
20784;SDS011;10552;45.818;12.896;2022-11-18T16:56:36;1.40;;;1.30;;
20784;SDS011;10552;45.818;12.896;2022-11-18T16:59:27;3.13;;;2.20;;
20784;SDS011;10552;45.818;12.896;2022-11-18T17:02:11;2.60;;;2.40;;
20784;SDS011;10552;45.818;12.896;2022-11-18T17:04:56;1.80;;;1.73;;
20784;SDS011;10552;45.818;12.896;2022-11-18T17:07:44;1.63;;;1.53;;
20784;SDS011;10552;45.818;12.896;2022-11-18T17:10:28;1.47;;;1.37;;
20784;SDS011;10552;45.818;12.896;2022-11-18T17:13:12;1.60;;;1.50;;
20784;SDS011;10552;45.818;12.896;2022-11-18T17:15:55;1.63;;;1.53;;
20784;SDS011;10552;45.818;12.896;2022-11-18T17:18:46;1.40;;;1.30;;
20784;SDS011;10552;45.818;12.896;2022-11-18T17:21:30;1.70;;;1.60;;
20784;SDS011;10552;45.818;12.896;2022-11-18T17:24:24;1.60;;;1.47;;
20784;SDS011;10552;45.818;12.896;2022-11-18T17:27:15;1.63;;;1.53;;